Time;durP1;ratioP1;P1;durP2;ratioP2;P2;SDS_P1;SDS_P2;PMS_P1;PMS_P2;Temp;Humidity;BMP_temperature;BMP_pressure;BME280_temperature;BME280_humidity;BME280_pressure;Samples;Min_cycle;Max_cycle;Signal;HPM_P1;HPM_P2
2023/10/24 00:02:47;;;;;;;9.40;4.90;;;;;;;;;;6083086;23;20259;-91
2023/10/24 00:05:53;;;;;;;10.10;4.85;;;;;;;;;;6065940;23;20215;-91
2023/10/24 00:08:58;;;;;;;10.32;5.53;;;;;;;;;;6065715;23;20182;-90
2023/10/24 00:12:03;;;;;;;12.73;5.20;;;;;;;;;;6067852;23;20159;-91
2023/10/24 00:15:09;;;;;;;11.68;5.15;;;;;;;;;;6070640;23;20292;-91
2023/10/24 00:18:16;;;;;;;11.20;5.38;;;;;;;;;;6069004;23;20150;-91
2023/10/24 00:21:21;;;;;;;10.80;5.85;;;;;;;;;;6070311;23;20175;-91
2023/10/24 00:24:27;;;;;;;11.63;5.28;;;;;;;;;;6067427;23;20179;-91
2023/10/24 00:27:32;;;;;;;12.20;5.13;;;;;;;;;;6068684;23;20191;-92
2023/10/24 00:30:39;;;;;;;12.38;5.20;;;;;;;;;;6065749;23;20203;-90
2023/10/24 00:33:46;;;;;;;13.07;4.78;;;;;;;;;;6082885;23;20171;-91
2023/10/24 00:36:51;;;;;;;7.15;4.30;;;;;;;;;;6066615;23;20203;-92
2023/10/24 00:39:57;;;;;;;9.98;5.00;;;;;;;;;;6067182;23;20214;-91
2023/10/24 00:43:04;;;;;;;13.75;5.03;;;;;;;;;;6066828;23;20166;-91
2023/10/24 00:46:10;;;;;;;6.70;3.90;;;;;;;;;;6066196;23;20170;-91
2023/10/24 00:49:16;;;;;;;12.75;4.53;;;;;;;;;;6067738;23;20151;-90
2023/10/24 00:52:22;;;;;;;10.88;4.60;;;;;;;;;;6067722;23;20247;-91
2023/10/24 00:55:27;;;;;;;11.38;4.68;;;;;;;;;;6082433;23;20274;-91
2023/10/24 00:58:32;;;;;;;12.75;5.40;;;;;;;;;;6066671;23;20174;-92
2023/10/24 01:01:37;;;;;;;10.57;4.75;;;;;;;;;;6065465;23;20167;-90
2023/10/24 01:04:44;;;;;;;14.95;4.53;;;;;;;;;;6066338;23;20151;-92
2023/10/24 01:07:50;;;;;;;9.65;4.47;;;;;;;;;;6065935;23;20237;-90
2023/10/24 01:10:55;;;;;;;8.77;4.82;;;;;;;;;;6067791;23;20207;-92
2023/10/24 01:14:01;;;;;;;8.40;4.30;;;;;;;;;;6083909;23;20158;-91
2023/10/24 01:17:11;;;;;;;7.90;4.00;;;;;;;;;;6068071;23;20219;-91
2023/10/24 01:20:19;;;;;;;13.00;3.90;;;;;;;;;;6069951;23;20182;-89
2023/10/24 01:23:28;;;;;;;13.02;4.05;;;;;;;;;;6068555;23;20174;-91
2023/10/24 01:26:34;;;;;;;12.07;4.72;;;;;;;;;;6068536;23;20202;-90
2023/10/24 01:29:39;;;;;;;9.73;3.92;;;;;;;;;;6067594;23;20178;-91
2023/10/24 01:32:44;;;;;;;7.82;4.13;;;;;;;;;;6066639;23;20174;-91
2023/10/24 01:35:51;;;;;;;7.70;3.97;;;;;;;;;;6066935;23;20186;-91
2023/10/24 01:38:59;;;;;;;11.93;4.72;;;;;;;;;;6066378;23;20619;-91
2023/10/24 01:42:04;;;;;;;9.00;4.45;;;;;;;;;;6067778;23;20207;-92
2023/10/24 01:45:10;;;;;;;11.30;4.72;;;;;;;;;;6067713;23;20179;-92
2023/10/24 01:48:15;;;;;;;12.75;4.70;;;;;;;;;;6068413;23;20170;-91
2023/10/24 01:51:21;;;;;;;9.32;4.60;;;;;;;;;;6067765;23;20310;-90
2023/10/24 01:54:28;;;;;;;9.30;4.55;;;;;;;;;;6068372;23;20198;-89
2023/10/24 01:57:34;;;;;;;9.05;4.65;;;;;;;;;;6066617;23;20187;-90
2023/10/24 02:00:39;;;;;;;7.75;4.05;;;;;;;;;;6066396;23;20231;-91
2023/10/24 02:03:44;;;;;;;10.50;4.68;;;;;;;;;;6083551;23;20174;-91
2023/10/24 02:06:49;;;;;;;7.72;4.63;;;;;;;;;;6066408;23;20228;-91
2023/10/24 02:09:56;;;;;;;9.20;4.55;;;;;;;;;;6066162;23;20233;-91
2023/10/24 02:13:02;;;;;;;9.75;4.10;;;;;;;;;;6066018;23;20178;-91
2023/10/24 02:16:07;;;;;;;15.82;4.75;;;;;;;;;;6066877;23;20193;-91
2023/10/24 02:19:12;;;;;;;8.38;4.63;;;;;;;;;;6068245;23;20174;-90
2023/10/24 02:22:17;;;;;;;8.73;4.60;;;;;;;;;;6067277;23;20175;-89
2023/10/24 02:25:23;;;;;;;11.10;4.28;;;;;;;;;;6068096;23;20174;-91
2023/10/24 02:28:29;;;;;;;8.18;4.40;;;;;;;;;;6067227;23;20170;-90
2023/10/24 02:31:34;;;;;;;8.48;4.50;;;;;;;;;;6065217;23;20211;-89
2023/10/24 02:34:39;;;;;;;9.48;4.25;;;;;;;;;;6067452;23;20194;-91
2023/10/24 02:37:44;;;;;;;16.02;4.45;;;;;;;;;;6066663;23;20499;-90
2023/10/24 02:40:55;;;;;;;6.50;3.92;;;;;;;;;;6066659;23;20199;-90
2023/10/24 02:44:01;;;;;;;7.30;4.03;;;;;;;;;;6083462;23;20259;-90
2023/10/24 02:47:07;;;;;;;11.38;4.47;;;;;;;;;;6066964;23;20166;-90
2023/10/24 02:50:12;;;;;;;7.22;4.35;;;;;;;;;;6067023;23;20508;-90
2023/10/24 02:53:17;;;;;;;12.55;4.65;;;;;;;;;;6065930;23;20254;-90
2023/10/24 02:56:25;;;;;;;10.25;4.43;;;;;;;;;;6066385;23;20187;-90
2023/10/24 02:59:30;;;;;;;7.80;3.95;;;;;;;;;;6083337;23;20155;-90
2023/10/24 03:02:35;;;;;;;10.10;4.45;;;;;;;;;;6064284;23;20166;-88
2023/10/24 03:05:41;;;;;;;8.65;3.85;;;;;;;;;;6065640;23;20166;-91
2023/10/24 03:08:47;;;;;;;7.68;4.20;;;;;;;;;;6083651;23;20174;-90
2023/10/24 03:11:54;;;;;;;10.25;4.30;;;;;;;;;;6067551;23;20170;-93
2023/10/24 03:14:59;;;;;;;12.07;4.82;;;;;;;;;;6067720;23;20198;-90
2023/10/24 03:18:05;;;;;;;9.63;4.10;;;;;;;;;;6065831;23;20219;-91
2023/10/24 03:21:10;;;;;;;11.38;3.97;;;;;;;;;;6065968;23;20154;-92
2023/10/24 03:24:15;;;;;;;10.85;3.92;;;;;;;;;;6065206;23;20174;-91
2023/10/24 03:27:22;;;;;;;9.63;4.25;;;;;;;;;;6067075;23;20223;-91
2023/10/24 03:30:27;;;;;;;10.18;4.43;;;;;;;;;;6067239;23;20174;-90
2023/10/24 03:33:32;;;;;;;9.43;5.05;;;;;;;;;;6066321;23;20173;-92
2023/10/24 03:36:38;;;;;;;6.70;4.07;;;;;;;;;;6067418;23;20230;-91
2023/10/24 03:39:45;;;;;;;10.82;4.53;;;;;;;;;;6067658;23;20174;-93
2023/10/24 03:42:52;;;;;;;10.73;4.50;;;;;;;;;;6086460;23;20250;-90
2023/10/24 03:45:57;;;;;;;10.95;4.63;;;;;;;;;;6069578;23;20181;-89
2023/10/24 03:49:03;;;;;;;8.98;4.45;;;;;;;;;;6069639;23;20198;-91
2023/10/24 03:52:08;;;;;;;6.70;4.03;;;;;;;;;;6067685;23;20246;-92
2023/10/24 03:55:13;;;;;;;10.02;4.75;;;;;;;;;;6068566;23;20334;-90
2023/10/24 03:58:19;;;;;;;8.90;4.53;;;;;;;;;;6068779;23;20174;-91
2023/10/24 04:01:25;;;;;;;10.00;4.50;;;;;;;;;;6069972;23;20187;-90
2023/10/24 04:04:31;;;;;;;9.38;4.40;;;;;;;;;;6067939;23;20174;-90
2023/10/24 04:07:36;;;;;;;12.35;4.85;;;;;;;;;;6068440;23;20175;-90
2023/10/24 04:10:41;;;;;;;12.70;4.65;;;;;;;;;;6069783;23;20177;-91
2023/10/24 04:13:49;;;;;;;10.30;4.65;;;;;;;;;;6069578;23;20174;-90
2023/10/24 04:16:55;;;;;;;7.30;4.72;;;;;;;;;;6084244;23;20182;-90
2023/10/24 04:20:00;;;;;;;9.48;4.80;;;;;;;;;;6068050;23;20203;-89
2023/10/24 04:23:05;;;;;;;9.60;5.20;;;;;;;;;;6068651;23;20170;-91
2023/10/24 04:26:11;;;;;;;10.68;4.45;;;;;;;;;;6069522;23;20198;-92
2023/10/24 04:29:19;;;;;;;8.52;4.40;;;;;;;;;;6086269;23;20215;-91
2023/10/24 04:32:24;;;;;;;7.07;4.22;;;;;;;;;;6069370;23;20235;-91
2023/10/24 04:35:33;;;;;;;9.13;5.00;;;;;;;;;;6087217;23;20181;-90
2023/10/24 04:38:38;;;;;;;7.30;4.30;;;;;;;;;;6069307;23;20187;-91
2023/10/24 04:41:47;;;;;;;11.35;5.45;;;;;;;;;;6068962;23;20200;-90
2023/10/24 04:48:13;;;;;;;12.88;4.60;;;;;;;;;;6071132;23;20211;-91
2023/10/24 04:51:18;;;;;;;9.50;4.85;;;;;;;;;;6071342;23;20207;-91
2023/10/24 06:02:28;;;;;;;9.23;5.57;;;;;;;;;;5964674;23;20233;-90
2023/10/24 06:05:33;;;;;;;14.48;6.05;;;;;;;;;;6002160;23;20182;-90
2023/10/24 06:08:39;;;;;;;12.15;5.97;;;;;;;;;;5983828;24;20176;-92
2023/10/24 06:11:44;;;;;;;11.23;5.80;;;;;;;;;;5996601;24;20513;-89
2023/10/24 06:14:50;;;;;;;9.10;5.78;;;;;;;;;;5966326;24;20164;-92
2023/10/24 06:17:57;;;;;;;12.27;5.50;;;;;;;;;;5997674;23;20229;-90
2023/10/24 06:21:04;;;;;;;11.90;5.63;;;;;;;;;;5980821;24;20202;-93
2023/10/24 06:24:09;;;;;;;14.98;5.85;;;;;;;;;;5981087;24;20177;-91
2023/10/24 06:27:21;;;;;;;11.85;6.13;;;;;;;;;;5982320;24;20506;-92
2023/10/24 06:30:27;;;;;;;10.38;5.55;;;;;;;;;;5981345;24;20171;-91
2023/10/24 06:33:33;;;;;;;9.10;5.53;;;;;;;;;;5997294;24;20247;-90
2023/10/24 06:36:39;;;;;;;10.27;6.15;;;;;;;;;;5999605;24;20234;-92
2023/10/24 06:39:44;;;;;;;13.80;6.10;;;;;;;;;;5998559;24;20289;-89
2023/10/24 06:42:49;;;;;;;14.23;6.53;;;;;;;;;;5999136;24;20245;-91
2023/10/24 06:45:55;;;;;;;14.15;6.40;;;;;;;;;;5998139;23;20177;-90
2023/10/24 06:49:02;;;;;;;10.18;5.65;;;;;;;;;;5997584;23;20223;-90
2023/10/24 06:52:09;;;;;;;9.43;5.55;;;;;;;;;;6000645;24;20219;-91
2023/10/24 06:55:14;;;;;;;13.85;6.00;;;;;;;;;;5983039;24;20164;-91
2023/10/24 06:58:19;;;;;;;12.10;5.68;;;;;;;;;;5983597;24;20169;-93
2023/10/24 07:01:24;;;;;;;11.05;6.03;;;;;;;;;;5998752;23;20268;-90
2023/10/24 07:04:39;;;;;;;10.85;5.47;;;;;;;;;;6001629;23;20160;-92
2023/10/24 07:07:45;;;;;;;10.02;4.85;;;;;;;;;;5983777;23;20273;-92
2023/10/24 07:10:51;;;;;;;13.32;5.40;;;;;;;;;;5999467;23;20168;-91
2023/10/24 07:13:56;;;;;;;10.20;5.28;;;;;;;;;;6001229;23;20172;-91
2023/10/24 07:17:02;;;;;;;11.45;5.40;;;;;;;;;;5999596;24;20191;-91
2023/10/24 07:20:09;;;;;;;13.02;5.63;;;;;;;;;;5998051;24;20176;-92
2023/10/24 07:23:15;;;;;;;11.50;5.80;;;;;;;;;;6000637;23;20228;-90
2023/10/24 07:26:20;;;;;;;15.15;5.93;;;;;;;;;;5998265;23;20245;-92
2023/10/24 07:29:27;;;;;;;11.43;6.30;;;;;;;;;;5999302;23;20172;-92
2023/10/24 07:32:34;;;;;;;13.63;6.30;;;;;;;;;;5984055;24;20176;-91
2023/10/24 07:35:43;;;;;;;14.65;7.38;;;;;;;;;;5999321;23;20188;-91
2023/10/24 07:42:13;;;;;;;12.18;6.57;;;;;;;;;;5982484;23;20169;-93
2023/10/24 07:45:19;;;;;;;17.40;7.30;;;;;;;;;;5999791;24;20194;-93
2023/10/24 07:48:25;;;;;;;20.23;8.07;;;;;;;;;;5983810;24;20171;-93
2023/10/24 07:51:32;;;;;;;14.50;6.75;;;;;;;;;;5981624;24;20225;-91
2023/10/24 07:54:38;;;;;;;16.73;7.95;;;;;;;;;;5999587;24;20189;-90
2023/10/24 07:57:43;;;;;;;16.90;7.90;;;;;;;;;;5983036;24;20233;-92
2023/10/24 08:00:49;;;;;;;15.32;6.85;;;;;;;;;;5982955;24;20203;-92
2023/10/24 08:03:54;;;;;;;12.35;6.68;;;;;;;;;;5981703;24;20176;-91
2023/10/24 08:07:03;;;;;;;15.60;7.03;;;;;;;;;;5983861;24;20183;-92
2023/10/24 08:10:08;;;;;;;13.32;6.60;;;;;;;;;;5997419;24;20188;-91
2023/10/24 08:13:24;;;;;;;15.00;6.45;;;;;;;;;;5998155;24;20198;-92
2023/10/24 08:16:31;;;;;;;11.48;6.35;;;;;;;;;;5999084;23;20204;-93
2023/10/24 12:37:16;;;;;;;64.43;25.48;;;;;;;;;;6082503;23;20218;-92
2023/10/24 12:40:21;;;;;;;79.28;28.48;;;;;;;;;;6114179;23;20215;-90
2023/10/24 12:43:26;;;;;;;75.53;27.98;;;;;;;;;;6112069;23;20157;-92
2023/10/24 12:46:31;;;;;;;71.57;27.08;;;;;;;;;;6111616;23;20233;-90
2023/10/24 12:49:36;;;;;;;69.72;27.73;;;;;;;;;;6110644;23;20610;-91
2023/10/24 12:52:43;;;;;;;73.28;26.55;;;;;;;;;;6111729;23;20242;-93
2023/10/24 12:55:48;;;;;;;85.07;30.77;;;;;;;;;;6111314;23;20178;-90
2023/10/24 12:58:54;;;;;;;73.57;28.25;;;;;;;;;;6128465;23;20218;-88
2023/10/24 13:01:59;;;;;;;70.30;27.33;;;;;;;;;;6112349;23;20222;-90
2023/10/24 13:05:05;;;;;;;75.28;27.92;;;;;;;;;;6112144;23;20167;-91
2023/10/24 13:08:12;;;;;;;73.93;28.17;;;;;;;;;;6112980;23;20178;-90
2023/10/24 13:11:17;;;;;;;70.63;26.95;;;;;;;;;;6114975;23;20210;-90
2023/10/24 13:14:22;;;;;;;71.55;25.77;;;;;;;;;;6110509;23;20178;-91
2023/10/24 13:17:28;;;;;;;67.85;26.75;;;;;;;;;;6111645;23;20197;-90
2023/10/24 13:20:33;;;;;;;76.05;28.15;;;;;;;;;;6114843;23;20170;-91
2023/10/24 13:23:39;;;;;;;69.22;27.60;;;;;;;;;;6111280;23;20170;-90
2023/10/24 13:26:45;;;;;;;76.28;27.85;;;;;;;;;;6112986;23;20169;-92
2023/10/24 13:29:51;;;;;;;125.78;49.25;;;;;;;;;;6113624;23;20178;-90
2023/10/24 13:32:57;;;;;;;207.55;86.18;;;;;;;;;;6115092;23;20214;-91
2023/10/24 13:39:24;;;;;;;71.18;26.80;;;;;;;;;;6114851;23;20214;-90
2023/10/24 13:42:29;;;;;;;71.40;29.45;;;;;;;;;;6113882;23;20222;-93
2023/10/24 13:45:35;;;;;;;69.22;28.20;;;;;;;;;;6112514;23;20203;-92
2023/10/24 13:48:41;;;;;;;63.42;25.23;;;;;;;;;;6110006;23;20160;-92
2023/10/24 13:51:45;;;;;;;58.33;24.05;;;;;;;;;;6112093;23;20170;-91
2023/10/24 13:54:52;;;;;;;63.05;25.95;;;;;;;;;;6114747;23;20247;-92
2023/10/24 13:57:57;;;;;;;60.78;25.08;;;;;;;;;;6113035;23;20201;-90
2023/10/24 14:01:04;;;;;;;62.15;25.27;;;;;;;;;;6114441;23;20206;-90
2023/10/24 14:07:29;;;;;;;71.50;27.00;;;;;;;;;;6117298;23;20186;-92
2023/10/24 14:10:39;;;;;;;73.60;25.58;;;;;;;;;;6116773;23;20179;-91
2023/10/24 14:17:09;;;;;;;62.25;26.50;;;;;;;;;;6118698;23;20229;-91
2023/10/24 14:20:17;;;;;;;65.80;26.17;;;;;;;;;;6119353;23;20154;-90
2023/10/24 14:23:23;;;;;;;65.72;27.10;;;;;;;;;;6118157;23;20174;-91
2023/10/24 14:26:47;;;;;;;71.57;27.15;;;;;;;;;;6117145;23;20226;-92
2023/10/24 14:29:56;;;;;;;63.40;25.48;;;;;;;;;;6117125;23;20186;-92
2023/10/24 14:33:01;;;;;;;71.25;27.13;;;;;;;;;;6117925;23;20169;-88
2023/10/24 14:36:10;;;;;;;68.13;25.88;;;;;;;;;;6117149;23;20191;-92
2023/10/24 14:39:16;;;;;;;69.45;25.65;;;;;;;;;;6115720;23;20170;-93
2023/10/24 14:42:23;;;;;;;67.30;27.40;;;;;;;;;;6118651;23;20162;-92
2023/10/24 14:45:39;;;;;;;69.82;26.40;;;;;;;;;;6118139;23;20170;-90
2023/10/24 14:48:45;;;;;;;72.95;29.08;;;;;;;;;;6117991;23;20170;-92
2023/10/24 14:51:53;;;;;;;69.60;28.30;;;;;;;;;;6117822;23;20214;-90
2023/10/24 14:55:01;;;;;;;72.10;28.67;;;;;;;;;;6118598;23;20169;-89
2023/10/24 14:58:08;;;;;;;71.13;26.92;;;;;;;;;;6117622;23;20409;-89
2023/10/24 15:01:17;;;;;;;73.00;26.77;;;;;;;;;;6118269;23;20153;-91
2023/10/24 15:07:43;;;;;;;82.00;28.55;;;;;;;;;;6117675;23;20595;-90
2023/10/24 15:10:48;;;;;;;70.82;26.83;;;;;;;;;;6119109;23;20169;-93
2023/10/24 15:17:16;;;;;;;65.40;25.50;;;;;;;;;;6113774;23;20242;-90
2023/10/24 15:20:22;;;;;;;65.88;24.70;;;;;;;;;;6115255;23;20166;-91
2023/10/24 15:23:28;;;;;;;67.20;26.67;;;;;;;;;;6115292;23;20157;-93
2023/10/24 15:26:35;;;;;;;76.75;29.33;;;;;;;;;;6116457;23;20169;-92
2023/10/24 15:29:40;;;;;;;73.32;26.63;;;;;;;;;;6115808;23;20223;-91
2023/10/24 15:32:49;;;;;;;70.65;25.83;;;;;;;;;;6115300;23;20165;-91
2023/10/24 15:35:55;;;;;;;65.70;23.85;;;;;;;;;;6112665;23;20169;-89
2023/10/24 15:39:00;;;;;;;65.13;24.38;;;;;;;;;;6111904;23;20158;-93
2023/10/24 15:42:05;;;;;;;64.97;24.45;;;;;;;;;;6113096;23;20177;-90
2023/10/24 15:45:11;;;;;;;65.10;24.30;;;;;;;;;;6114488;23;20170;-90
2023/10/24 15:48:20;;;;;;;69.30;25.75;;;;;;;;;;6114346;23;20595;-91
2023/10/24 15:51:33;;;;;;;66.35;24.30;;;;;;;;;;6116632;23;20174;-92
2023/10/24 15:54:47;;;;;;;61.38;23.85;;;;;;;;;;6116094;23;20170;-90
2023/10/24 15:57:55;;;;;;;65.95;24.58;;;;;;;;;;6116125;23;20178;-92
2023/10/24 16:01:01;;;;;;;55.70;24.23;;;;;;;;;;6118233;23;20183;-91
2023/10/24 16:04:12;;;;;;;60.83;24.00;;;;;;;;;;6117942;23;20195;-89
2023/10/24 16:07:18;;;;;;;59.42;23.33;;;;;;;;;;6116159;23;20166;-90
2023/10/24 16:10:26;;;;;;;54.38;21.63;;;;;;;;;;6116061;23;20186;-89
2023/10/24 16:13:32;;;;;;;55.88;23.02;;;;;;;;;;6115888;23;20170;-90
2023/10/24 16:16:38;;;;;;;57.53;23.20;;;;;;;;;;6117422;23;20227;-90
2023/10/24 16:19:47;;;;;;;58.60;22.92;;;;;;;;;;6117371;23;20174;-92
2023/10/24 16:22:56;;;;;;;57.10;21.65;;;;;;;;;;6117742;23;20193;-91
2023/10/24 16:29:23;;;;;;;53.33;22.35;;;;;;;;;;6118291;23;20182;-90
2023/10/24 16:32:29;;;;;;;51.20;22.73;;;;;;;;;;6117138;23;20170;-87
2023/10/24 16:35:55;;;;;;;56.58;23.88;;;;;;;;;;6121541;23;21033;-90
2023/10/24 16:42:31;;;;;;;51.53;22.60;;;;;;;;;;6117942;23;20197;-90
2023/10/24 16:45:37;;;;;;;51.80;22.00;;;;;;;;;;6136571;23;20189;-91
2023/10/24 16:48:45;;;;;;;54.97;22.23;;;;;;;;;;6118956;23;20183;-93
2023/10/24 18:28:45;;;;;;;28.25;13.65;;;;;;;;;;6043178;23;20200;-92
2023/10/24 18:31:51;;;;;;;26.77;13.30;;;;;;;;;;6087414;23;20171;-93
2023/10/24 18:34:56;;;;;;;26.00;13.15;;;;;;;;;;6056307;23;20190;-90
2023/10/24 18:38:02;;;;;;;25.75;12.77;;;;;;;;;;6083620;23;20194;-92
2023/10/24 18:41:08;;;;;;;26.88;13.18;;;;;;;;;;6085532;23;20167;-89
2023/10/24 18:44:16;;;;;;;23.83;12.40;;;;;;;;;;6088566;23;20170;-90
2023/10/24 18:47:21;;;;;;;24.83;11.90;;;;;;;;;;6089346;23;20501;-91
2023/10/24 18:50:27;;;;;;;21.75;12.13;;;;;;;;;;6089253;23;20198;-92
2023/10/24 18:53:39;;;;;;;31.17;13.20;;;;;;;;;;6089495;23;20158;-92
2023/10/24 18:56:47;;;;;;;43.97;20.75;;;;;;;;;;6089758;23;20158;-91
2023/10/24 18:59:59;;;;;;;24.52;12.55;;;;;;;;;;6108131;23;20171;-90
2023/10/24 19:06:26;;;;;;;26.88;12.88;;;;;;;;;;6088449;23;20180;-90
2023/10/24 19:09:33;;;;;;;19.33;11.05;;;;;;;;;;6104577;23;20209;-92
2023/10/24 19:12:40;;;;;;;24.45;12.38;;;;;;;;;;6105129;23;20167;-92
2023/10/24 19:15:48;;;;;;;25.50;12.32;;;;;;;;;;6088638;23;20170;-94
2023/10/24 19:18:58;;;;;;;20.33;11.15;;;;;;;;;;6087275;23;20179;-90
2023/10/24 19:22:04;;;;;;;22.42;10.88;;;;;;;;;;6086261;23;20174;-90
2023/10/24 19:25:12;;;;;;;20.75;11.15;;;;;;;;;;6090505;23;20191;-93
2023/10/24 19:28:17;;;;;;;20.20;10.27;;;;;;;;;;6088162;23;20194;-93
2023/10/24 19:31:25;;;;;;;20.15;9.63;;;;;;;;;;6086599;23;20179;-91
2023/10/24 19:34:33;;;;;;;23.60;10.02;;;;;;;;;;6085878;23;20175;-94
2023/10/24 19:37:39;;;;;;;20.70;11.50;;;;;;;;;;6104584;23;20210;-91
2023/10/24 19:40:44;;;;;;;18.40;9.35;;;;;;;;;;6088572;23;20182;-94
2023/10/24 19:43:55;;;;;;;16.20;9.48;;;;;;;;;;6084456;23;20207;-92
2023/10/24 19:47:05;;;;;;;18.67;10.02;;;;;;;;;;6086841;23;20170;-93
2023/10/24 19:50:11;;;;;;;21.73;10.23;;;;;;;;;;6104817;23;20179;-93
2023/10/24 19:53:20;;;;;;;18.13;9.30;;;;;;;;;;6086873;23;20207;-89
2023/10/24 19:56:28;;;;;;;15.93;9.60;;;;;;;;;;6088046;23;20174;-92
2023/10/24 19:59:34;;;;;;;21.70;10.63;;;;;;;;;;6102838;23;20219;-92
2023/10/24 20:02:45;;;;;;;16.38;8.68;;;;;;;;;;6087890;23;20187;-93
2023/10/24 20:06:00;;;;;;;16.35;8.02;;;;;;;;;;6088103;23;20219;-92
2023/10/24 20:09:10;;;;;;;12.77;7.57;;;;;;;;;;6089521;23;20171;-94
2023/10/24 20:12:18;;;;;;;14.77;8.48;;;;;;;;;;6088966;23;20192;-92
2023/10/24 20:15:23;;;;;;;13.95;7.60;;;;;;;;;;6104283;23;20171;-93
2023/10/24 20:18:33;;;;;;;13.38;7.50;;;;;;;;;;6104984;23;20189;-94
2023/10/24 20:21:40;;;;;;;11.70;7.55;;;;;;;;;;6089702;23;20215;-94
2023/10/24 20:24:49;;;;;;;13.60;7.53;;;;;;;;;;6091722;23;20207;-91
2023/10/24 20:27:55;;;;;;;18.77;7.82;;;;;;;;;;6092353;23;20254;-92
2023/10/24 20:31:03;;;;;;;20.83;9.90;;;;;;;;;;6090498;23;20191;-92
2023/10/24 20:34:12;;;;;;;14.18;8.25;;;;;;;;;;6089229;23;20191;-92
2023/10/24 20:37:18;;;;;;;16.60;8.60;;;;;;;;;;6088096;23;20181;-90
2023/10/24 20:40:25;;;;;;;16.80;8.32;;;;;;;;;;6090297;23;20166;-93
2023/10/24 20:43:40;;;;;;;14.75;8.02;;;;;;;;;;6090983;23;20178;-90
2023/10/24 20:46:45;;;;;;;12.38;7.43;;;;;;;;;;6088886;23;20174;-94
2023/10/24 20:49:53;;;;;;;16.75;8.73;;;;;;;;;;6088543;23;20219;-91
2023/10/24 20:52:59;;;;;;;14.75;8.55;;;;;;;;;;6088054;23;20208;-90
2023/10/24 20:56:05;;;;;;;13.45;7.78;;;;;;;;;;6089511;23;20184;-92
2023/10/24 20:59:11;;;;;;;15.13;8.55;;;;;;;;;;6088210;23;20223;-91
2023/10/24 21:02:17;;;;;;;16.48;8.50;;;;;;;;;;6088196;23;20157;-93
2023/10/24 21:05:23;;;;;;;14.75;8.38;;;;;;;;;;6104650;23;20214;-92
2023/10/24 21:08:29;;;;;;;13.75;8.15;;;;;;;;;;6105412;23;20244;-90
2023/10/24 21:11:35;;;;;;;14.98;8.10;;;;;;;;;;6089674;23;20178;-93
2023/10/24 21:14:41;;;;;;;16.25;9.40;;;;;;;;;;6104771;23;20243;-91
2023/10/24 21:17:47;;;;;;;14.63;8.63;;;;;;;;;;6088985;23;20212;-90
2023/10/24 21:20:54;;;;;;;17.27;9.90;;;;;;;;;;6088210;23;20245;-91
2023/10/24 21:24:00;;;;;;;22.38;11.48;;;;;;;;;;6104961;23;20175;-90
2023/10/24 21:27:06;;;;;;;17.05;9.88;;;;;;;;;;6089765;23;20203;-91
2023/10/24 21:30:12;;;;;;;18.92;10.32;;;;;;;;;;6082750;23;20179;-91
2023/10/24 21:33:18;;;;;;;18.45;10.07;;;;;;;;;;6082960;23;20170;-92
2023/10/24 21:36:28;;;;;;;18.67;10.05;;;;;;;;;;6082816;23;20171;-90
2023/10/24 21:39:37;;;;;;;14.27;8.70;;;;;;;;;;6086728;23;20203;-90
2023/10/24 21:42:42;;;;;;;17.08;8.63;;;;;;;;;;6084418;23;20611;-91
2023/10/24 21:45:48;;;;;;;17.65;9.02;;;;;;;;;;6083000;23;20215;-91
2023/10/24 21:48:53;;;;;;;22.65;11.52;;;;;;;;;;6086658;23;20214;-91
2023/10/24 21:52:00;;;;;;;18.02;10.40;;;;;;;;;;6083459;23;20171;-93
2023/10/24 21:55:08;;;;;;;16.95;9.60;;;;;;;;;;6084651;23;20179;-92
2023/10/24 21:58:14;;;;;;;19.90;10.25;;;;;;;;;;6084221;23;20197;-91
2023/10/24 22:01:20;;;;;;;19.67;10.35;;;;;;;;;;6085575;23;20170;-91
2023/10/24 22:04:26;;;;;;;16.40;9.20;;;;;;;;;;6083524;23;20202;-93
2023/10/24 22:07:33;;;;;;;18.27;9.57;;;;;;;;;;6084099;23;20269;-93
2023/10/24 22:10:39;;;;;;;17.13;10.23;;;;;;;;;;6082018;23;20215;-91
2023/10/24 22:13:44;;;;;;;24.02;12.60;;;;;;;;;;6100344;23;20211;-92
2023/10/24 22:16:49;;;;;;;19.63;11.18;;;;;;;;;;6084088;23;20170;-90
2023/10/24 22:19:55;;;;;;;20.70;11.43;;;;;;;;;;6082096;23;20199;-91
2023/10/24 22:23:02;;;;;;;21.48;10.55;;;;;;;;;;6084659;23;20171;-93
2023/10/24 22:26:10;;;;;;;19.30;10.95;;;;;;;;;;6083513;23;20183;-92
2023/10/24 22:29:21;;;;;;;18.63;9.65;;;;;;;;;;6087704;23;20183;-93
2023/10/24 22:32:26;;;;;;;15.73;8.70;;;;;;;;;;6082208;23;20154;-92
2023/10/24 22:35:32;;;;;;;19.13;8.15;;;;;;;;;;6082801;23;20207;-91
2023/10/24 22:38:39;;;;;;;18.63;9.77;;;;;;;;;;6082115;23;20239;-92
2023/10/24 22:41:44;;;;;;;14.45;8.43;;;;;;;;;;6083160;23;20195;-92
2023/10/24 22:44:49;;;;;;;15.20;7.78;;;;;;;;;;6100803;23;20171;-92
2023/10/24 22:47:54;;;;;;;14.68;7.38;;;;;;;;;;6082311;23;20170;-92
2023/10/24 22:51:01;;;;;;;15.25;7.25;;;;;;;;;;6082064;23;20232;-93
2023/10/24 22:54:08;;;;;;;13.55;7.00;;;;;;;;;;6083067;23;20190;-92
2023/10/24 22:57:13;;;;;;;11.20;6.72;;;;;;;;;;6081663;23;20614;-93
2023/10/24 23:00:19;;;;;;;12.75;6.70;;;;;;;;;;6081367;23;20194;-91
2023/10/24 23:03:24;;;;;;;13.65;7.40;;;;;;;;;;6098315;23;20211;-91
